Chitose-shi, Japan

1:34 AM JST on December 23, 2014 (GMT +0900)
New Chitose | Change Station
CLOSE
Current Station
Airport
Location: Chitose AB,
Elevation: 98 ft
Nearby Weather Stations

Elev 98 ft 42.77 °N, 141.69 °E | Updated 34 minutes ago

Light Snow Showers
Light Showers Snow
18 °F
Feels Like 9 °F
N
6
Wind Variable Wind from SSW

Today
High -- | Low -- °F
--% Chance of Precip.
Yesterday
High -- | Low -- °F
Precip. -- in
7:01 AM 4:03 PM
New Moon, 1% visible
Pressure 29.62 in
Visibility 6.2 miles
Clouds Few 1500 ft
Scattered Clouds 3500 ft
Windchill 9 °F
Dew Point 7 °F
Humidity 63%
Rainfall 0.00 in
Snow Depth Not available.
UV 0 out of 12
Pollen Not available.
Air Quality Not available.
Flu Activity Not available.
METAR RJCC 221600Z 21005KT 9999 -SHSN FEW015 SCT035 M08/M14 Q1003

More Conditions Fewer Conditions

Pressure 29.62 in
Visibility 6.2 miles
Clouds Few 1500 ft
Scattered Clouds 3500 ft
Windchill 9 °F
Dew Point 7 °F
Humidity 63%
Rainfall 0.00 in
Snow Depth Not available.
UV 0 out of 12
Pollen Not available.
Air Quality Not available.
Flu Activity Not available.
METAR RJCC 221600Z 21005KT 9999 -SHSN FEW015 SCT035 M08/M14 Q1003

More Conditions Fewer Conditions

10-Day Weather Forecast

Almanac

Astronomy

Dec. 23, 2014 Rise Set
Actual Time
Civil Twilight
Nautical Twilight
Astronomical Twilight
Moon
Length of Visible Light
Length of Day
Tomorrow will be .
, % of the Moon is Illuminated

Today's Extremes

Country Highs Country Lows

Community

WunderPhotos

Upload Photos

1,779,636 photos uploaded!

WunderBlogs® & News

Nearby

Air Quality

  Air Quality AQ Index Pollutant
Not available.

Snow Depth

Station Depth Elevation

Earthquake Activity

City Distance Mag. Time & Date
Minimum magnitude displayed is 2.5.

Coastal Water Temperatures

Place Temperature

Nearby Weather Stations